sensor_id;sensor_type;location;lat;lon;timestamp;pressure;altitude;pressure_sealevel;temperature;humidity
64679;BME280;51094;53.864;27.676;2023-02-19T00:01:23;97600.47;;;1.78;67.79
64679;BME280;51094;53.864;27.676;2023-02-19T00:03:55;97532.94;;;1.38;68.10
64679;BME280;51094;53.864;27.676;2023-02-19T00:06:24;97577.84;;;1.57;67.92
64679;BME280;51094;53.864;27.676;2023-02-19T00:08:51;97646.06;;;1.87;68.52
64679;BME280;51094;53.864;27.676;2023-02-19T00:11:21;97572.16;;;1.52;68.77
64679;BME280;51094;53.864;27.676;2023-02-19T00:13:50;97661.16;;;1.91;68.79
64679;BME280;51094;53.864;27.676;2023-02-19T00:16:26;97467.00;;;0.86;68.71
64679;BME280;51094;53.864;27.676;2023-02-19T00:18:55;97636.81;;;1.84;68.78
64679;BME280;51094;53.864;27.676;2023-02-19T00:21:23;97618.38;;;1.65;69.55
64679;BME280;51094;53.864;27.676;2023-02-19T00:23:59;97633.69;;;1.79;69.88
64679;BME280;51094;53.864;27.676;2023-02-19T00:26:27;97526.94;;;1.10;69.50
64679;BME280;51094;53.864;27.676;2023-02-19T00:28:55;97631.97;;;1.80;69.91
64679;BME280;51094;53.864;27.676;2023-02-19T00:31:33;97622.81;;;1.76;69.79
64679;BME280;51094;53.864;27.676;2023-02-19T00:34:02;97634.97;;;1.86;69.61
64679;BME280;51094;53.864;27.676;2023-02-19T00:36:31;97645.41;;;1.83;69.96
64679;BME280;51094;53.864;27.676;2023-02-19T00:38:58;97634.38;;;1.69;69.58
64679;BME280;51094;53.864;27.676;2023-02-19T00:41:34;97558.13;;;1.17;69.46
64679;BME280;51094;53.864;27.676;2023-02-19T00:44:04;97639.59;;;1.67;69.83
64679;BME280;51094;53.864;27.676;2023-02-19T00:46:34;97616.72;;;1.50;70.30
64679;BME280;51094;53.864;27.676;2023-02-19T00:49:03;97653.50;;;1.63;70.28
64679;BME280;51094;53.864;27.676;2023-02-19T00:51:32;97580.78;;;1.23;70.09
64679;BME280;51094;53.864;27.676;2023-02-19T00:54:00;97647.47;;;1.64;70.38
64679;BME280;51094;53.864;27.676;2023-02-19T00:56:28;97593.47;;;1.39;69.96
64679;BME280;51094;53.864;27.676;2023-02-19T00:58:55;97644.53;;;1.70;70.13
64679;BME280;51094;53.864;27.676;2023-02-19T01:01:22;97559.66;;;1.05;70.03
64679;BME280;51094;53.864;27.676;2023-02-19T01:03:49;97627.34;;;1.58;70.29
64679;BME280;51094;53.864;27.676;2023-02-19T01:06:18;97657.44;;;1.69;69.96
64679;BME280;51094;53.864;27.676;2023-02-19T01:08:45;97613.69;;;1.43;69.97
64679;BME280;51094;53.864;27.676;2023-02-19T01:11:13;97665.50;;;1.62;70.42
64679;BME280;51094;53.864;27.676;2023-02-19T01:13:40;97599.16;;;1.15;70.25
64679;BME280;51094;53.864;27.676;2023-02-19T01:16:11;97656.97;;;1.62;70.22
64679;BME280;51094;53.864;27.676;2023-02-19T01:18:38;97601.25;;;1.37;70.35
64679;BME280;51094;53.864;27.676;2023-02-19T01:21:07;97372.88;;;-0.39;70.48
64679;BME280;51094;53.864;27.676;2023-02-19T01:23:35;97635.03;;;1.29;70.70
64679;BME280;51094;53.864;27.676;2023-02-19T01:26:10;97646.91;;;1.45;70.62
64679;BME280;51094;53.864;27.676;2023-02-19T01:28:37;97671.16;;;1.53;70.85
64679;BME280;51094;53.864;27.676;2023-02-19T01:31:06;97623.47;;;1.37;71.02
64679;BME280;51094;53.864;27.676;2023-02-19T01:33:34;97649.28;;;1.48;71.19
64679;BME280;51094;53.864;27.676;2023-02-19T01:36:05;97647.63;;;1.47;71.05
64679;BME280;51094;53.864;27.676;2023-02-19T01:38:32;97661.81;;;1.52;71.11
64679;BME280;51094;53.864;27.676;2023-02-19T01:41:04;97663.28;;;1.56;70.75
64679;BME280;51094;53.864;27.676;2023-02-19T01:43:33;97662.00;;;1.49;70.89
64679;BME280;51094;53.864;27.676;2023-02-19T01:46:00;97682.31;;;1.66;70.75
64679;BME280;51094;53.864;27.676;2023-02-19T01:48:38;97686.97;;;1.74;70.99
64679;BME280;51094;53.864;27.676;2023-02-19T01:51:08;97664.63;;;1.76;70.26
64679;BME280;51094;53.864;27.676;2023-02-19T01:53:41;97505.00;;;0.78;70.04
64679;BME280;51094;53.864;27.676;2023-02-19T01:56:12;97678.56;;;1.72;70.56
64679;BME280;51094;53.864;27.676;2023-02-19T01:58:42;97548.59;;;1.05;70.51
64679;BME280;51094;53.864;27.676;2023-02-19T02:01:09;97649.19;;;1.63;70.73
64679;BME280;51094;53.864;27.676;2023-02-19T02:03:39;97663.53;;;1.80;70.52
64679;BME280;51094;53.864;27.676;2023-02-19T02:06:12;97674.53;;;1.82;70.41
64679;BME280;51094;53.864;27.676;2023-02-19T02:08:41;97634.00;;;1.60;70.47
64679;BME280;51094;53.864;27.676;2023-02-19T02:11:26;97537.63;;;1.03;70.85
64679;BME280;51094;53.864;27.676;2023-02-19T02:13:54;97577.47;;;0.92;70.48
64679;BME280;51094;53.864;27.676;2023-02-19T02:16:29;97643.97;;;1.51;70.86
64679;BME280;51094;53.864;27.676;2023-02-19T02:19:29;97651.28;;;1.43;71.09
64679;BME280;51094;53.864;27.676;2023-02-19T02:22:17;97658.50;;;1.36;71.57
64679;BME280;51094;53.864;27.676;2023-02-19T02:27:50;97661.72;;;1.40;71.73
64679;BME280;51094;53.864;27.676;2023-02-19T02:30:36;97668.13;;;1.47;71.89
64679;BME280;51094;53.864;27.676;2023-02-19T02:35:46;97619.09;;;1.24;71.38
64679;BME280;51094;53.864;27.676;2023-02-19T02:38:15;97421.88;;;-0.02;70.91
64679;BME280;51094;53.864;27.676;2023-02-19T02:40:44;97592.03;;;1.06;71.22
64679;BME280;51094;53.864;27.676;2023-02-19T02:43:12;97652.03;;;1.45;71.44
64679;BME280;51094;53.864;27.676;2023-02-19T02:45:40;97562.38;;;0.88;70.39
64679;BME280;51094;53.864;27.676;2023-02-19T02:48:21;97693.13;;;1.57;70.50
64679;BME280;51094;53.864;27.676;2023-02-19T02:50:51;97684.25;;;1.63;70.81
64679;BME280;51094;53.864;27.676;2023-02-19T02:56:30;97610.84;;;1.05;70.01
64679;BME280;51094;53.864;27.676;2023-02-19T02:59:00;97643.31;;;1.33;70.13
64679;BME280;51094;53.864;27.676;2023-02-19T03:10:09;97587.81;;;1.05;70.48
64679;BME280;51094;53.864;27.676;2023-02-19T03:12:39;97640.03;;;1.31;70.45
64679;BME280;51094;53.864;27.676;2023-02-19T03:15:27;97701.44;;;1.61;70.58
64679;BME280;51094;53.864;27.676;2023-02-19T03:18:18;97707.41;;;1.61;71.12
64679;BME280;51094;53.864;27.676;2023-02-19T03:21:05;97666.84;;;1.40;70.77
64679;BME280;51094;53.864;27.676;2023-02-19T03:23:33;97699.03;;;1.29;71.01
64679;BME280;51094;53.864;27.676;2023-02-19T03:26:20;97644.69;;;1.10;71.80
64679;BME280;51094;53.864;27.676;2023-02-19T03:28:52;97696.38;;;1.31;72.20
64679;BME280;51094;53.864;27.676;2023-02-19T03:31:41;97706.00;;;1.42;72.52
64679;BME280;51094;53.864;27.676;2023-02-19T03:34:13;97666.22;;;0.92;72.80
64679;BME280;51094;53.864;27.676;2023-02-19T03:36:45;97684.28;;;1.19;73.62
64679;BME280;51094;53.864;27.676;2023-02-19T03:39:16;97665.03;;;0.97;73.49
64679;BME280;51094;53.864;27.676;2023-02-19T03:41:57;97714.13;;;1.34;73.69
64679;BME280;51094;53.864;27.676;2023-02-19T03:44:51;97728.66;;;1.33;73.65
64679;BME280;51094;53.864;27.676;2023-02-19T03:47:28;97683.78;;;0.98;73.42
64679;BME280;51094;53.864;27.676;2023-02-19T03:55:17;97719.19;;;1.06;73.86
64679;BME280;51094;53.864;27.676;2023-02-19T03:57:50;97634.38;;;0.52;73.49
64679;BME280;51094;53.864;27.676;2023-02-19T04:00:31;97705.00;;;1.00;73.46
64679;BME280;51094;53.864;27.676;2023-02-19T04:06:07;97730.63;;;1.14;73.59
64679;BME280;51094;53.864;27.676;2023-02-19T04:08:37;97710.19;;;0.98;73.85
64679;BME280;51094;53.864;27.676;2023-02-19T04:11:06;97704.41;;;0.81;73.61
64679;BME280;51094;53.864;27.676;2023-02-19T04:13:43;97492.81;;;-0.37;73.72
64679;BME280;51094;53.864;27.676;2023-02-19T04:16:19;97722.75;;;1.03;73.83
64679;BME280;51094;53.864;27.676;2023-02-19T04:18:50;97493.31;;;-0.78;73.97
64679;BME280;51094;53.864;27.676;2023-02-19T04:21:21;97623.56;;;0.32;73.80
64679;BME280;51094;53.864;27.676;2023-02-19T04:23:48;97726.81;;;0.91;74.25
64679;BME280;51094;53.864;27.676;2023-02-19T04:26:16;97653.97;;;0.37;74.34
64679;BME280;51094;53.864;27.676;2023-02-19T04:28:45;97728.81;;;0.86;74.48
64679;BME280;51094;53.864;27.676;2023-02-19T04:31:12;97727.25;;;0.84;75.04
64679;BME280;51094;53.864;27.676;2023-02-19T04:33:40;97630.97;;;0.21;74.56
64679;BME280;51094;53.864;27.676;2023-02-19T04:36:08;97726.38;;;0.69;74.85
64679;BME280;51094;53.864;27.676;2023-02-19T04:38:36;97708.63;;;0.66;75.14
64679;BME280;51094;53.864;27.676;2023-02-19T04:41:03;97689.81;;;0.51;75.13
64679;BME280;51094;53.864;27.676;2023-02-19T04:43:30;97697.00;;;0.60;75.06
64679;BME280;51094;53.864;27.676;2023-02-19T04:46:00;97700.38;;;0.61;74.69
64679;BME280;51094;53.864;27.676;2023-02-19T04:48:28;97722.41;;;0.63;75.27
64679;BME280;51094;53.864;27.676;2023-02-19T04:50:55;97708.22;;;0.58;75.07
64679;BME280;51094;53.864;27.676;2023-02-19T04:53:22;97668.50;;;0.37;74.92
64679;BME280;51094;53.864;27.676;2023-02-19T04:55:48;97677.81;;;0.38;75.18
64679;BME280;51094;53.864;27.676;2023-02-19T04:58:19;97727.28;;;0.68;75.63
64679;BME280;51094;53.864;27.676;2023-02-19T05:00:50;97684.50;;;0.40;74.95
64679;BME280;51094;53.864;27.676;2023-02-19T05:03:17;97751.53;;;0.77;74.92
64679;BME280;51094;53.864;27.676;2023-02-19T05:05:44;97697.28;;;0.40;75.29
64679;BME280;51094;53.864;27.676;2023-02-19T05:08:10;97735.19;;;0.63;75.05
64679;BME280;51094;53.864;27.676;2023-02-19T05:10:37;97734.03;;;0.69;75.01
64679;BME280;51094;53.864;27.676;2023-02-19T05:13:04;97750.28;;;0.84;75.49
64679;BME280;51094;53.864;27.676;2023-02-19T05:15:30;97766.03;;;0.92;75.42
64679;BME280;51094;53.864;27.676;2023-02-19T05:17:57;97727.44;;;0.81;75.00
64679;BME280;51094;53.864;27.676;2023-02-19T05:20:24;97679.03;;;0.46;74.89
64679;BME280;51094;53.864;27.676;2023-02-19T05:22:51;97665.16;;;0.50;75.10
64679;BME280;51094;53.864;27.676;2023-02-19T05:25:17;97721.84;;;0.88;74.42
64679;BME280;51094;53.864;27.676;2023-02-19T05:27:44;97646.22;;;0.39;74.26
64679;BME280;51094;53.864;27.676;2023-02-19T05:30:11;97647.06;;;0.39;74.36
64679;BME280;51094;53.864;27.676;2023-02-19T05:32:38;97662.78;;;0.47;74.31
64679;BME280;51094;53.864;27.676;2023-02-19T05:35:05;97651.16;;;0.42;74.14
64679;BME280;51094;53.864;27.676;2023-02-19T05:37:32;97755.63;;;0.95;73.92
64679;BME280;51094;53.864;27.676;2023-02-19T05:39:59;97724.69;;;0.84;74.26
64679;BME280;51094;53.864;27.676;2023-02-19T05:42:25;97735.56;;;0.87;74.07
64679;BME280;51094;53.864;27.676;2023-02-19T05:44:52;97717.94;;;0.83;73.62
64679;BME280;51094;53.864;27.676;2023-02-19T05:47:19;97734.22;;;0.96;73.72
64679;BME280;51094;53.864;27.676;2023-02-19T05:49:45;97650.84;;;0.32;73.56
64679;BME280;51094;53.864;27.676;2023-02-19T05:52:15;97745.63;;;0.90;73.32
64679;BME280;51094;53.864;27.676;2023-02-19T05:54:42;97694.84;;;0.69;73.56
64679;BME280;51094;53.864;27.676;2023-02-19T05:57:08;97699.97;;;0.69;72.99
64679;BME280;51094;53.864;27.676;2023-02-19T05:59:35;97716.38;;;0.80;73.32
64679;BME280;51094;53.864;27.676;2023-02-19T06:02:02;97681.97;;;0.54;73.21
64679;BME280;51094;53.864;27.676;2023-02-19T06:04:29;97632.94;;;0.32;73.00
64679;BME280;51094;53.864;27.676;2023-02-19T06:06:55;97726.94;;;1.04;72.98
64679;BME280;51094;53.864;27.676;2023-02-19T06:09:22;97746.75;;;1.16;72.54
64679;BME280;51094;53.864;27.676;2023-02-19T06:11:49;97753.34;;;1.20;72.91
64679;BME280;51094;53.864;27.676;2023-02-19T06:14:16;97716.19;;;1.13;72.20
64679;BME280;51094;53.864;27.676;2023-02-19T06:16:43;97678.97;;;0.78;72.58
64679;BME280;51094;53.864;27.676;2023-02-19T06:19:09;97739.72;;;1.34;72.75
64679;BME280;51094;53.864;27.676;2023-02-19T06:21:36;97730.06;;;1.09;72.00
64679;BME280;51094;53.864;27.676;2023-02-19T06:24:05;97666.63;;;0.70;72.32
64679;BME280;51094;53.864;27.676;2023-02-19T06:26:32;97759.94;;;1.24;72.70
64679;BME280;51094;53.864;27.676;2023-02-19T06:28:59;97727.44;;;1.11;72.38
64679;BME280;51094;53.864;27.676;2023-02-19T06:31:26;97766.22;;;1.19;72.76
64679;BME280;51094;53.864;27.676;2023-02-19T06:33:52;97689.47;;;0.73;72.17
64679;BME280;51094;53.864;27.676;2023-02-19T06:36:20;97652.44;;;0.49;72.17
64679;BME280;51094;53.864;27.676;2023-02-19T06:38:48;97721.56;;;1.09;72.33
64679;BME280;51094;53.864;27.676;2023-02-19T06:41:15;97727.44;;;1.11;71.91
64679;BME280;51094;53.864;27.676;2023-02-19T06:43:42;97752.63;;;1.32;72.05
64679;BME280;51094;53.864;27.676;2023-02-19T06:46:10;97747.88;;;1.41;72.33
64679;BME280;51094;53.864;27.676;2023-02-19T06:48:38;97761.09;;;1.49;71.85
64679;BME280;51094;53.864;27.676;2023-02-19T06:51:06;97759.81;;;1.56;71.98
64679;BME280;51094;53.864;27.676;2023-02-19T06:53:33;97676.06;;;1.14;71.26
64679;BME280;51094;53.864;27.676;2023-02-19T06:56:05;97688.41;;;1.21;71.31
64679;BME280;51094;53.864;27.676;2023-02-19T06:58:32;97571.81;;;0.43;70.61
64679;BME280;51094;53.864;27.676;2023-02-19T07:00:59;97752.88;;;1.58;70.16
64679;BME280;51094;53.864;27.676;2023-02-19T07:03:26;97678.91;;;1.23;70.25
64679;BME280;51094;53.864;27.676;2023-02-19T07:05:53;97724.50;;;1.61;70.12
64679;BME280;51094;53.864;27.676;2023-02-19T07:08:20;97724.09;;;1.24;70.12
64679;BME280;51094;53.864;27.676;2023-02-19T07:10:57;97764.78;;;1.87;69.98
64679;BME280;51094;53.864;27.676;2023-02-19T07:13:25;97719.38;;;1.75;69.62
64679;BME280;51094;53.864;27.676;2023-02-19T07:16:04;97748.09;;;1.80;69.58
64679;BME280;51094;53.864;27.676;2023-02-19T07:18:31;97733.09;;;1.88;69.34
64679;BME280;51094;53.864;27.676;2023-02-19T07:21:09;97751.25;;;2.14;69.10
64679;BME280;51094;53.864;27.676;2023-02-19T07:23:37;97723.97;;;1.98;68.63
64679;BME280;51094;53.864;27.676;2023-02-19T07:26:07;97634.00;;;1.32;68.77
64679;BME280;51094;53.864;27.676;2023-02-19T07:28:34;97639.94;;;1.18;69.52
64679;BME280;51094;53.864;27.676;2023-02-19T07:31:02;97745.56;;;1.94;69.85
64679;BME280;51094;53.864;27.676;2023-02-19T07:33:34;97746.03;;;2.01;69.88
64679;BME280;51094;53.864;27.676;2023-02-19T07:36:07;97748.84;;;2.11;69.29
64679;BME280;51094;53.864;27.676;2023-02-19T07:38:34;97731.69;;;2.25;69.58
64679;BME280;51094;53.864;27.676;2023-02-19T07:41:03;97743.69;;;2.39;67.97
64679;BME280;51094;53.864;27.676;2023-02-19T07:43:32;97749.44;;;2.43;67.99
64679;BME280;51094;53.864;27.676;2023-02-19T07:46:07;97757.69;;;2.48;67.35
64679;BME280;51094;53.864;27.676;2023-02-19T07:48:35;97571.84;;;1.30;65.79
64679;BME280;51094;53.864;27.676;2023-02-19T07:51:03;97754.50;;;2.30;64.62
64679;BME280;51094;53.864;27.676;2023-02-19T07:53:33;97757.34;;;2.25;65.03
64679;BME280;51094;53.864;27.676;2023-02-19T07:56:05;97758.16;;;2.26;65.02
64679;BME280;51094;53.864;27.676;2023-02-19T07:58:33;97774.09;;;2.17;64.90
64679;BME280;51094;53.864;27.676;2023-02-19T08:01:08;97735.84;;;1.99;65.76
64679;BME280;51094;53.864;27.676;2023-02-19T08:03:37;97770.28;;;2.10;65.53
64679;BME280;51094;53.864;27.676;2023-02-19T08:06:04;97688.47;;;1.64;64.50
64679;BME280;51094;53.864;27.676;2023-02-19T08:08:31;97746.28;;;1.96;64.37
64679;BME280;51094;53.864;27.676;2023-02-19T08:11:02;97767.06;;;2.20;64.37
64679;BME280;51094;53.864;27.676;2023-02-19T08:13:49;97771.91;;;2.39;64.44
64679;BME280;51094;53.864;27.676;2023-02-19T08:16:17;97764.47;;;2.34;63.53
64679;BME280;51094;53.864;27.676;2023-02-19T08:18:58;97777.66;;;2.57;63.40
64679;BME280;51094;53.864;27.676;2023-02-19T08:21:25;97759.91;;;2.40;63.39
64679;BME280;51094;53.864;27.676;2023-02-19T08:23:52;97706.75;;;2.00;62.56
64679;BME280;51094;53.864;27.676;2023-02-19T08:26:19;97652.13;;;1.72;62.24
64679;BME280;51094;53.864;27.676;2023-02-19T08:28:47;97668.38;;;1.99;61.93
64679;BME280;51094;53.864;27.676;2023-02-19T08:31:14;97624.56;;;1.75;60.64
64679;BME280;51094;53.864;27.676;2023-02-19T08:33:41;97762.75;;;2.76;60.08
64679;BME280;51094;53.864;27.676;2023-02-19T08:36:09;97635.63;;;2.17;60.35
64679;BME280;51094;53.864;27.676;2023-02-19T08:38:37;97736.84;;;3.06;58.61
64679;BME280;51094;53.864;27.676;2023-02-19T08:41:05;97775.16;;;3.49;57.73
64679;BME280;51094;53.864;27.676;2023-02-19T08:43:33;97771.88;;;3.47;56.83
64679;BME280;51094;53.864;27.676;2023-02-19T08:46:00;97726.03;;;3.28;57.61
64679;BME280;51094;53.864;27.676;2023-02-19T08:48:28;97731.16;;;3.53;55.22
64679;BME280;51094;53.864;27.676;2023-02-19T08:51:03;97772.63;;;3.61;54.08
64679;BME280;51094;53.864;27.676;2023-02-19T08:53:31;97720.13;;;3.13;54.44
64679;BME280;51094;53.864;27.676;2023-02-19T08:56:04;97746.28;;;3.06;55.31
64679;BME280;51094;53.864;27.676;2023-02-19T08:58:31;97771.16;;;3.05;54.64
64679;BME280;51094;53.864;27.676;2023-02-19T09:00:58;97701.91;;;2.64;54.98
64679;BME280;51094;53.864;27.676;2023-02-19T09:03:25;97726.94;;;2.87;55.15
64679;BME280;51094;53.864;27.676;2023-02-19T09:05:52;97678.81;;;2.37;53.71
64679;BME280;51094;53.864;27.676;2023-02-19T09:08:19;97775.47;;;3.31;53.87
64679;BME280;51094;53.864;27.676;2023-02-19T09:10:59;97782.38;;;3.56;52.08
64679;BME280;51094;53.864;27.676;2023-02-19T09:13:27;97774.59;;;3.83;52.12
64679;BME280;51094;53.864;27.676;2023-02-19T09:15:53;97768.09;;;4.16;51.57
64679;BME280;51094;53.864;27.676;2023-02-19T09:18:23;97726.41;;;4.11;52.91
64679;BME280;51094;53.864;27.676;2023-02-19T09:20:51;97769.84;;;4.28;48.93
64679;BME280;51094;53.864;27.676;2023-02-19T09:23:17;97775.28;;;4.11;49.60
64679;BME280;51094;53.864;27.676;2023-02-19T09:25:44;97751.00;;;4.15;50.46
64679;BME280;51094;53.864;27.676;2023-02-19T09:28:11;97750.94;;;4.40;51.43
64679;BME280;51094;53.864;27.676;2023-02-19T09:30:38;97769.81;;;5.01;50.73
64679;BME280;51094;53.864;27.676;2023-02-19T09:33:05;97748.31;;;5.13;51.52
64679;BME280;51094;53.864;27.676;2023-02-19T09:35:32;97754.72;;;5.43;48.87
64679;BME280;51094;53.864;27.676;2023-02-19T09:37:59;97744.09;;;5.47;49.14
64679;BME280;51094;53.864;27.676;2023-02-19T09:40:28;97770.72;;;5.70;47.62
64679;BME280;51094;53.864;27.676;2023-02-19T09:42:56;97764.47;;;5.50;46.27
64679;BME280;51094;53.864;27.676;2023-02-19T09:45:24;97695.78;;;5.38;47.97
64679;BME280;51094;53.864;27.676;2023-02-19T09:47:57;97770.41;;;5.86;48.22
64679;BME280;51094;53.864;27.676;2023-02-19T09:50:33;97720.91;;;5.23;45.77
64679;BME280;51094;53.864;27.676;2023-02-19T09:53:04;97776.38;;;5.05;45.40
64679;BME280;51094;53.864;27.676;2023-02-19T09:55:38;97761.69;;;4.71;47.25
64679;BME280;51094;53.864;27.676;2023-02-19T09:58:24;97796.13;;;4.57;47.01
64679;BME280;51094;53.864;27.676;2023-02-19T10:00:54;97739.59;;;3.93;48.20
64679;BME280;51094;53.864;27.676;2023-02-19T10:03:26;97660.44;;;3.60;49.89
64679;BME280;51094;53.864;27.676;2023-02-19T10:05:58;97773.47;;;4.49;48.46
64679;BME280;51094;53.864;27.676;2023-02-19T10:08:31;97789.09;;;4.95;45.44
64679;BME280;51094;53.864;27.676;2023-02-19T10:11:00;97721.94;;;4.86;45.38
64679;BME280;51094;53.864;27.676;2023-02-19T10:13:31;97795.97;;;5.43;43.70
64679;BME280;51094;53.864;27.676;2023-02-19T10:16:00;97754.63;;;5.09;43.38
64679;BME280;51094;53.864;27.676;2023-02-19T10:18:35;97773.97;;;5.50;44.33
64679;BME280;51094;53.864;27.676;2023-02-19T10:21:04;97743.53;;;5.55;43.06
64679;BME280;51094;53.864;27.676;2023-02-19T10:23:31;97779.84;;;6.09;43.40
64679;BME280;51094;53.864;27.676;2023-02-19T10:25:59;97739.88;;;6.04;43.61
64679;BME280;51094;53.864;27.676;2023-02-19T10:28:32;97741.38;;;6.17;41.82
64679;BME280;51094;53.864;27.676;2023-02-19T10:31:01;97782.09;;;6.47;41.25
64679;BME280;51094;53.864;27.676;2023-02-19T10:33:29;97723.31;;;6.06;40.92
64679;BME280;51094;53.864;27.676;2023-02-19T10:35:56;97784.44;;;6.28;40.73
64679;BME280;51094;53.864;27.676;2023-02-19T10:43:33;97671.56;;;5.74;41.87
64679;BME280;51094;53.864;27.676;2023-02-19T10:46:04;97743.13;;;6.28;42.74
64679;BME280;51094;53.864;27.676;2023-02-19T10:48:45;97690.03;;;6.57;41.84
64679;BME280;51094;53.864;27.676;2023-02-19T10:51:12;97767.94;;;7.38;39.22
64679;BME280;51094;53.864;27.676;2023-02-19T10:53:50;97709.63;;;7.24;37.51
64679;BME280;51094;53.864;27.676;2023-02-19T10:56:24;97769.69;;;7.69;37.87
64679;BME280;51094;53.864;27.676;2023-02-19T10:58:51;97726.03;;;7.55;37.13
64679;BME280;51094;53.864;27.676;2023-02-19T11:01:23;97756.16;;;7.86;36.92
64679;BME280;51094;53.864;27.676;2023-02-19T11:03:52;97705.75;;;8.11;38.69
64679;BME280;51094;53.864;27.676;2023-02-19T11:06:39;97720.63;;;8.28;36.12
64679;BME280;51094;53.864;27.676;2023-02-19T11:09:23;97721.31;;;8.30;35.43
64679;BME280;51094;53.864;27.676;2023-02-19T11:11:52;97669.59;;;8.00;35.61
64679;BME280;51094;53.864;27.676;2023-02-19T11:14:22;97737.03;;;8.79;37.20
64679;BME280;51094;53.864;27.676;2023-02-19T11:16:52;97758.72;;;9.55;36.42
64679;BME280;51094;53.864;27.676;2023-02-19T11:19:37;97699.69;;;9.00;36.17
64679;BME280;51094;53.864;27.676;2023-02-19T11:25:04;97758.13;;;8.55;37.56
64679;BME280;51094;53.864;27.676;2023-02-19T11:27:32;97778.75;;;8.76;36.84
64679;BME280;51094;53.864;27.676;2023-02-19T11:30:40;97769.97;;;9.07;38.40
64679;BME280;51094;53.864;27.676;2023-02-19T11:38:46;97792.88;;;9.02;35.88
64679;BME280;51094;53.864;27.676;2023-02-19T11:41:27;97774.41;;;7.85;36.76
64679;BME280;51094;53.864;27.676;2023-02-19T11:55:41;97790.81;;;5.08;41.51
64679;BME280;51094;53.864;27.676;2023-02-19T12:01:09;97397.75;;;1.95;43.50
64679;BME280;51094;53.864;27.676;2023-02-19T12:03:48;97772.81;;;4.22;43.37
64679;BME280;51094;53.864;27.676;2023-02-19T12:09:38;97801.47;;;4.90;43.73
64679;BME280;51094;53.864;27.676;2023-02-19T12:14:50;97771.53;;;4.77;41.30
64679;BME280;51094;53.864;27.676;2023-02-19T12:31:20;97794.31;;;3.95;44.46
64679;BME280;51094;53.864;27.676;2023-02-19T12:39:18;97791.22;;;3.65;44.81
64679;BME280;51094;53.864;27.676;2023-02-19T12:42:09;97793.16;;;3.49;45.37
64679;BME280;51094;53.864;27.676;2023-02-19T12:44:53;97765.50;;;3.40;45.00
64679;BME280;51094;53.864;27.676;2023-02-19T12:47:27;97785.56;;;3.60;43.68
64679;BME280;51094;53.864;27.676;2023-02-19T12:52:40;97798.31;;;3.61;42.62
64679;BME280;51094;53.864;27.676;2023-02-19T12:55:38;97803.84;;;3.55;42.47
64679;BME280;51094;53.864;27.676;2023-02-19T12:58:11;97780.00;;;3.01;42.33
64679;BME280;51094;53.864;27.676;2023-02-19T13:00:43;97783.88;;;2.94;43.39
64679;BME280;51094;53.864;27.676;2023-02-19T13:09:31;97788.47;;;3.68;41.57
64679;BME280;51094;53.864;27.676;2023-02-19T13:12:08;97762.88;;;5.25;39.65
64679;BME280;51094;53.864;27.676;2023-02-19T13:14:46;97775.72;;;6.07;35.40
64679;BME280;51094;53.864;27.676;2023-02-19T13:17:25;97794.13;;;6.91;35.76
64679;BME280;51094;53.864;27.676;2023-02-19T13:20:02;97792.63;;;7.10;34.88
64679;BME280;51094;53.864;27.676;2023-02-19T13:22:39;97793.91;;;7.15;35.27
64679;BME280;51094;53.864;27.676;2023-02-19T13:25:38;97797.56;;;7.65;35.76
64679;BME280;51094;53.864;27.676;2023-02-19T13:28:38;97720.25;;;7.10;32.63
64679;BME280;51094;53.864;27.676;2023-02-19T13:31:25;97828.06;;;6.20;34.32
64679;BME280;51094;53.864;27.676;2023-02-19T13:36:34;97832.38;;;3.78;38.53
64679;BME280;51094;53.864;27.676;2023-02-19T13:39:04;97801.16;;;3.31;39.57
64679;BME280;51094;53.864;27.676;2023-02-19T13:41:53;97808.22;;;3.28;40.29
64679;BME280;51094;53.864;27.676;2023-02-19T13:44:24;97834.50;;;3.58;41.15
64679;BME280;51094;53.864;27.676;2023-02-19T13:46:52;97838.97;;;3.82;43.18
64679;BME280;51094;53.864;27.676;2023-02-19T13:51:58;97782.97;;;3.47;45.29
64679;BME280;51094;53.864;27.676;2023-02-19T13:54:29;97820.81;;;3.58;46.81
64679;BME280;51094;53.864;27.676;2023-02-19T13:59:52;97820.34;;;3.65;47.63
64679;BME280;51094;53.864;27.676;2023-02-19T14:05:56;97795.25;;;3.94;47.96
64679;BME280;51094;53.864;27.676;2023-02-19T14:07:54;97817.72;;;4.67;44.55
64679;BME280;51094;53.864;27.676;2023-02-19T14:10:50;97823.34;;;5.32;39.91
64679;BME280;51094;53.864;27.676;2023-02-19T14:16:48;97805.75;;;3.79;41.95
64679;BME280;51094;53.864;27.676;2023-02-19T14:27:56;97701.44;;;2.72;43.86
64679;BME280;51094;53.864;27.676;2023-02-19T14:30:26;97800.56;;;3.14;43.86
64679;BME280;51094;53.864;27.676;2023-02-19T14:32:54;97826.53;;;3.09;44.38
64679;BME280;51094;53.864;27.676;2023-02-19T14:35:43;97788.75;;;2.43;44.66
64679;BME280;51094;53.864;27.676;2023-02-19T14:38:30;97830.72;;;2.56;45.01
64679;BME280;51094;53.864;27.676;2023-02-19T14:40:58;97754.91;;;1.95;44.79
64679;BME280;51094;53.864;27.676;2023-02-19T14:43:26;97766.34;;;2.04;44.48
64679;BME280;51094;53.864;27.676;2023-02-19T14:45:58;97679.81;;;1.22;44.35
64679;BME280;51094;53.864;27.676;2023-02-19T14:48:33;97807.84;;;2.11;44.36
64679;BME280;51094;53.864;27.676;2023-02-19T14:51:07;97827.03;;;2.18;44.51
64679;BME280;51094;53.864;27.676;2023-02-19T14:53:41;97881.22;;;2.56;46.15
64679;BME280;51094;53.864;27.676;2023-02-19T14:56:21;97836.13;;;2.09;49.31
64679;BME280;51094;53.864;27.676;2023-02-19T14:59:21;97878.53;;;2.29;53.33
64679;BME280;51094;53.864;27.676;2023-02-19T15:01:56;97882.09;;;2.12;53.48
64679;BME280;51094;53.864;27.676;2023-02-19T15:04:27;97907.97;;;1.93;54.05
64679;BME280;51094;53.864;27.676;2023-02-19T15:06:54;97890.63;;;1.83;54.76
64679;BME280;51094;53.864;27.676;2023-02-19T15:09:38;97858.47;;;1.63;54.93
64679;BME280;51094;53.864;27.676;2023-02-19T15:12:06;97887.69;;;1.75;55.44
64679;BME280;51094;53.864;27.676;2023-02-19T15:14:33;97891.63;;;1.66;55.32